createdAt,value
2022-10-30T00:00:52.943Z,14.87
2022-10-30T00:03:21.404Z,14.33
2022-10-30T00:05:51.715Z,15.03
2022-10-30T00:08:21.730Z,12.20
2022-10-30T00:10:51.558Z,9.67
2022-10-30T00:13:20.840Z,13.30
2022-10-30T00:15:51.042Z,14.83
2022-10-30T00:18:20.881Z,12.00
2022-10-30T00:20:49.692Z,11.03
2022-10-30T00:23:18.341Z,14.47
2022-10-30T00:25:46.816Z,21.57
2022-10-30T00:28:16.596Z,9.60
2022-10-30T00:30:45.438Z,13.03
2022-10-30T00:33:13.899Z,11.90
2022-10-30T00:35:49.526Z,11.10
2022-10-30T00:38:18.068Z,15.37
2022-10-30T00:40:46.598Z,13.70
2022-10-30T00:43:34.260Z,11.73
2022-10-30T00:46:06.644Z,17.13
2022-10-30T00:48:35.744Z,9.83
2022-10-30T00:51:06.561Z,10.10
2022-10-30T00:53:35.148Z,8.93
2022-10-30T00:56:07.372Z,11.40
2022-10-30T00:58:39.997Z,14.47
2022-10-30T01:01:12.177Z,14.13
2022-10-30T01:03:41.531Z,15.57
2022-10-30T01:06:12.282Z,9.63
2022-10-30T01:08:41.075Z,13.43
2022-10-30T01:11:10.600Z,10.30
2022-10-30T01:13:41.128Z,14.80
2022-10-30T01:16:32.637Z,12.43
2022-10-30T01:19:13.494Z,12.83
2022-10-30T01:21:51.368Z,11.73
2022-10-30T01:24:32.397Z,15.10
2022-10-30T01:27:13.779Z,11.97
2022-10-30T01:29:52.807Z,18.83
2022-10-30T01:32:37.391Z,14.63
2022-10-30T01:35:10.765Z,13.10
2022-10-30T01:37:48.484Z,10.00
2022-10-30T01:40:19.065Z,12.57
2022-10-30T01:42:50.712Z,14.43
2022-10-30T01:45:28.151Z,12.37
2022-10-30T01:48:07.178Z,12.97
2022-10-30T01:50:48.004Z,10.87
2022-10-30T01:53:26.173Z,11.13
2022-10-30T01:55:58.979Z,16.87
2022-10-30T01:58:31.160Z,14.87
2022-10-30T02:01:01.903Z,14.47
2022-10-30T02:03:32.052Z,18.17
2022-10-30T02:06:00.693Z,14.80
2022-10-30T02:08:29.644Z,10.43
2022-10-30T02:10:58.568Z,9.63
2022-10-30T02:13:54.574Z,12.13
2022-10-30T02:16:24.604Z,15.37
2022-10-30T02:18:53.200Z,10.90
2022-10-30T02:21:23.265Z,11.97
2022-10-30T02:23:52.126Z,11.60
2022-10-30T02:26:20.879Z,13.60
2022-10-30T02:28:49.362Z,15.07
2022-10-30T02:31:19.917Z,12.67
2022-10-30T02:33:48.466Z,15.97
2022-10-30T02:36:16.999Z,17.67
2022-10-30T02:38:46.843Z,19.73
2022-10-30T02:41:15.865Z,21.07
2022-10-30T02:43:44.526Z,20.33
2022-10-30T02:46:13.227Z,20.53
2022-10-30T02:48:41.798Z,14.27
2022-10-30T02:51:10.528Z,14.03
2022-10-30T02:53:40.573Z,15.20
2022-10-30T02:56:13.819Z,7.23
2022-10-30T02:58:43.406Z,9.53
2022-10-30T03:01:13.734Z,11.40
2022-10-30T03:03:43.767Z,10.03
2022-10-30T03:06:15.825Z,8.57
2022-10-30T03:08:45.237Z,12.33
2022-10-30T03:11:17.562Z,14.13
2022-10-30T03:13:47.360Z,11.93
2022-10-30T03:16:18.155Z,13.77
2022-10-30T03:18:46.802Z,10.07
2022-10-30T03:21:17.059Z,10.40
2022-10-30T03:23:46.452Z,12.90
2022-10-30T03:26:16.354Z,12.43
2022-10-30T03:28:53.563Z,13.07
2022-10-30T03:31:22.780Z,8.90
2022-10-30T03:34:08.454Z,8.73
2022-10-30T03:36:37.001Z,9.10
2022-10-30T03:39:05.906Z,13.50
2022-10-30T03:41:36.270Z,13.67
2022-10-30T03:44:04.988Z,12.67
2022-10-30T03:46:33.413Z,9.47
2022-10-30T03:49:15.927Z,8.67
2022-10-30T03:51:44.368Z,12.50
2022-10-30T03:54:12.864Z,13.00
2022-10-30T03:56:42.730Z,8.07
2022-10-30T03:59:15.206Z,9.43
2022-10-30T04:01:46.022Z,11.40
2022-10-30T04:04:14.836Z,9.03
2022-10-30T04:06:43.322Z,11.20
2022-10-30T04:09:12.055Z,10.20
2022-10-30T04:11:45.277Z,10.80
2022-10-30T04:14:13.838Z,20.40
2022-10-30T04:16:42.376Z,11.83
2022-10-30T04:19:10.960Z,17.17
2022-10-30T04:21:39.583Z,19.43
2022-10-30T04:24:08.695Z,16.80
2022-10-30T04:26:37.815Z,22.97
2022-10-30T04:29:07.827Z,24.67
2022-10-30T04:31:36.508Z,33.30
2022-10-30T04:34:05.042Z,26.77
2022-10-30T04:36:34.089Z,30.90
2022-10-30T04:39:03.152Z,22.97
2022-10-30T04:41:32.356Z,24.83
2022-10-30T04:44:07.156Z,54.80
2022-10-30T04:46:35.635Z,57.70
2022-10-30T04:49:09.733Z,50.17
2022-10-30T04:51:38.180Z,21.07
2022-10-30T04:54:08.494Z,23.20
2022-10-30T04:56:38.957Z,28.43
2022-10-30T04:59:09.033Z,23.80
2022-10-30T05:01:37.740Z,16.77
2022-10-30T05:04:06.409Z,18.77
2022-10-30T05:06:35.246Z,26.77
2022-10-30T05:09:03.918Z,14.13
2022-10-30T05:11:36.632Z,12.77
2022-10-30T05:14:05.178Z,20.37
2022-10-30T05:16:35.070Z,12.57
2022-10-30T05:19:05.705Z,16.77
2022-10-30T05:21:36.115Z,17.57
2022-10-30T05:24:06.858Z,15.30
2022-10-30T05:26:44.467Z,23.17
2022-10-30T05:29:14.161Z,16.90
2022-10-30T05:31:44.305Z,26.97
2022-10-30T05:34:18.502Z,41.60
2022-10-30T05:36:50.391Z,23.80
2022-10-30T05:39:19.961Z,41.77
2022-10-30T05:41:51.252Z,32.63
2022-10-30T05:44:40.508Z,38.77
2022-10-30T05:47:13.403Z,24.47
2022-10-30T05:49:46.692Z,27.43
2022-10-30T05:52:20.196Z,23.73
2022-10-30T05:54:51.146Z,27.23
2022-10-30T05:57:39.901Z,19.60
2022-10-30T06:00:09.804Z,27.30
2022-10-30T06:02:45.337Z,19.17
2022-10-30T06:05:16.068Z,27.87
2022-10-30T06:07:44.700Z,14.97
2022-10-30T06:10:14.294Z,15.17
2022-10-30T06:12:54.025Z,16.40
2022-10-30T06:15:35.023Z,35.70
2022-10-30T06:18:05.511Z,28.13
2022-10-30T06:20:55.824Z,54.00
2022-10-30T06:23:49.310Z,24.23
2022-10-30T06:26:34.369Z,56.80
2022-10-30T06:29:08.456Z,44.73
2022-10-30T06:31:36.941Z,47.17
2022-10-30T06:34:06.885Z,32.50
2022-10-30T06:36:38.166Z,40.10
2022-10-30T06:39:07.429Z,58.63
2022-10-30T06:41:45.593Z,30.10
2022-10-30T06:44:32.546Z,48.37
2022-10-30T06:47:01.967Z,47.10
2022-10-30T06:49:31.904Z,45.33
2022-10-30T06:52:00.561Z,26.90
2022-10-30T06:54:29.533Z,20.03
2022-10-30T06:57:03.535Z,52.07
2022-10-30T06:59:52.233Z,28.77
2022-10-30T07:02:27.838Z,44.37
2022-10-30T07:05:00.855Z,21.03
2022-10-30T07:07:30.003Z,27.50
2022-10-30T07:09:58.698Z,31.87
2022-10-30T07:12:52.349Z,29.83
2022-10-30T07:15:36.083Z,55.60
2022-10-30T07:18:13.790Z,56.77
2022-10-30T07:20:44.092Z,48.20
2022-10-30T07:23:12.610Z,87.60
2022-10-30T07:25:41.148Z,10.03
2022-10-30T07:28:32.481Z,30.43
2022-10-30T07:31:34.761Z,20.57
2022-10-30T07:34:28.157Z,16.30
2022-10-30T07:37:16.536Z,19.67
2022-10-30T07:39:50.926Z,10.07
2022-10-30T07:42:23.187Z,9.10
2022-10-30T07:45:30.221Z,17.67
2022-10-30T07:48:19.048Z,10.93
2022-10-30T07:50:55.645Z,9.70
2022-10-30T07:53:25.556Z,7.00
2022-10-30T07:55:54.330Z,8.80
2022-10-30T07:58:45.390Z,7.40
2022-10-30T08:01:20.151Z,6.67
2022-10-30T08:03:48.922Z,6.93
2022-10-30T08:06:28.577Z,6.80
2022-10-30T08:08:59.140Z,7.63
2022-10-30T08:11:31.336Z,6.37
2022-10-30T08:14:01.064Z,7.23
2022-10-30T08:16:29.551Z,6.30
2022-10-30T08:18:59.291Z,6.97
2022-10-30T08:21:27.782Z,5.57
2022-10-30T08:24:09.358Z,7.87
2022-10-30T08:26:39.226Z,5.97
2022-10-30T08:29:07.962Z,6.43
2022-10-30T08:31:36.495Z,4.67
2022-10-30T08:34:05.483Z,8.67
2022-10-30T08:36:49.930Z,5.20
2022-10-30T08:39:20.310Z,5.37
2022-10-30T08:42:09.094Z,4.83
2022-10-30T08:44:43.557Z,6.27
2022-10-30T08:47:52.072Z,6.30
2022-10-30T08:52:53.882Z,4.83
2022-10-30T08:55:24.735Z,5.37
2022-10-30T08:57:54.265Z,6.77
2022-10-30T09:00:23.324Z,6.30
2022-10-30T09:03:10.927Z,8.23
2022-10-30T09:06:17.461Z,9.10
2022-10-30T09:09:24.363Z,8.17
2022-10-30T09:11:58.711Z,6.87
2022-10-30T09:14:27.628Z,5.83
2022-10-30T09:16:57.643Z,10.43
2022-10-30T09:19:28.547Z,6.27
2022-10-30T09:21:59.252Z,10.37
2022-10-30T09:24:27.875Z,7.10
2022-10-30T09:26:57.740Z,7.80
2022-10-30T09:29:27.455Z,5.97
2022-10-30T09:32:01.667Z,9.27
2022-10-30T09:34:32.516Z,6.67
2022-10-30T09:37:15.782Z,9.40
2022-10-30T09:39:47.439Z,6.70
2022-10-30T09:42:51.276Z,7.83
2022-10-30T09:45:46.676Z,8.93
2022-10-30T09:48:32.629Z,10.00
2022-10-30T09:51:26.264Z,13.03
2022-10-30T09:54:05.397Z,8.60
2022-10-30T09:56:45.187Z,8.27
2022-10-30T09:59:24.574Z,7.93
2022-10-30T10:01:57.278Z,11.47
2022-10-30T10:04:30.107Z,9.30
2022-10-30T10:07:20.106Z,14.47
2022-10-30T10:10:01.593Z,10.37
2022-10-30T10:13:01.093Z,10.33
2022-10-30T10:15:38.973Z,9.70
2022-10-30T10:18:13.881Z,12.90
2022-10-30T10:20:43.798Z,9.90
2022-10-30T10:23:18.660Z,8.90
2022-10-30T10:25:53.809Z,13.00
2022-10-30T10:28:36.972Z,15.83
2022-10-30T10:31:11.596Z,14.27
2022-10-30T10:33:52.451Z,10.43
2022-10-30T10:36:29.750Z,9.57
2022-10-30T10:39:07.462Z,11.57
2022-10-30T10:41:53.517Z,9.57
2022-10-30T10:44:34.801Z,11.33
2022-10-30T10:47:11.784Z,12.47
2022-10-30T10:49:54.201Z,9.50
2022-10-30T10:52:24.986Z,14.47
2022-10-30T10:54:55.263Z,13.70
2022-10-30T10:57:27.877Z,12.73
2022-10-30T10:59:59.367Z,13.13
2022-10-30T11:02:34.302Z,10.40
2022-10-30T11:05:08.545Z,9.87
2022-10-30T11:07:42.841Z,14.30
2022-10-30T11:10:14.637Z,13.07
2022-10-30T11:12:44.469Z,10.87
2022-10-30T11:15:23.574Z,12.17
2022-10-30T11:17:57.269Z,13.43
2022-10-30T11:20:31.092Z,10.57
2022-10-30T11:22:59.856Z,10.30
2022-10-30T11:25:35.675Z,16.37
2022-10-30T11:28:07.484Z,9.77
2022-10-30T11:30:36.182Z,10.43
2022-10-30T11:33:30.548Z,8.57
2022-10-30T11:36:15.455Z,10.70
2022-10-30T11:38:44.653Z,12.73
2022-10-30T11:41:13.692Z,12.93
2022-10-30T11:43:43.027Z,12.03
2022-10-30T11:46:13.913Z,14.57
2022-10-30T11:48:45.692Z,14.17
2022-10-30T11:51:14.732Z,13.67
2022-10-30T11:53:48.411Z,12.07
2022-10-30T11:56:18.556Z,9.67
2022-10-30T11:58:50.518Z,13.20
2022-10-30T12:01:23.676Z,11.80
2022-10-30T12:03:55.230Z,13.83
2022-10-30T12:06:29.160Z,10.03
2022-10-30T12:09:02.208Z,9.30
2022-10-30T12:11:32.674Z,11.03
2022-10-30T12:14:02.052Z,15.13
2022-10-30T12:16:31.007Z,19.17
2022-10-30T12:19:03.381Z,12.27
2022-10-30T12:21:37.874Z,19.83
2022-10-30T12:24:09.482Z,14.83
2022-10-30T12:26:38.822Z,11.27
2022-10-30T12:29:09.698Z,9.93
2022-10-30T12:31:41.909Z,10.07
2022-10-30T12:34:30.297Z,11.23
2022-10-30T12:37:06.074Z,14.30
2022-10-30T12:39:46.233Z,14.47
2022-10-30T12:42:16.410Z,10.37
2022-10-30T12:44:47.963Z,14.40
2022-10-30T12:47:22.066Z,11.40
2022-10-30T12:49:53.433Z,11.97
2022-10-30T12:52:27.483Z,11.33
2022-10-30T12:54:59.995Z,11.50
2022-10-30T12:57:29.999Z,8.97
2022-10-30T13:00:03.844Z,16.30
2022-10-30T13:02:49.059Z,10.63
2022-10-30T13:05:31.448Z,11.90
2022-10-30T13:08:08.239Z,11.87
2022-10-30T13:10:41.534Z,16.90
2022-10-30T13:13:14.105Z,12.77
2022-10-30T13:15:46.628Z,9.93
2022-10-30T13:18:19.263Z,9.43
2022-10-30T13:20:59.870Z,13.57
2022-10-30T13:23:33.140Z,13.10
2022-10-30T13:26:10.506Z,9.83
2022-10-30T13:28:43.477Z,15.60
2022-10-30T13:31:18.954Z,12.80
2022-10-30T13:33:54.275Z,12.47
2022-10-30T13:36:31.195Z,14.10
2022-10-30T13:39:01.987Z,15.23
2022-10-30T13:41:36.871Z,11.03
2022-10-30T13:44:16.183Z,12.80
2022-10-30T13:46:57.297Z,18.13
2022-10-30T13:49:40.558Z,13.10
2022-10-30T13:52:15.572Z,11.17
2022-10-30T13:54:47.422Z,13.57
2022-10-30T13:57:22.667Z,14.67
2022-10-30T14:00:00.022Z,10.90
2022-10-30T14:03:00.010Z,15.03
2022-10-30T14:05:32.673Z,10.43
2022-10-30T14:08:11.631Z,16.20
2022-10-30T14:10:46.409Z,12.80
2022-10-30T14:13:27.919Z,11.87
2022-10-30T14:15:58.989Z,9.87
2022-10-30T14:18:44.736Z,12.00
2022-10-30T14:21:36.506Z,18.43
2022-10-30T14:24:13.155Z,11.50
2022-10-30T14:26:48.507Z,11.73
2022-10-30T14:29:45.573Z,16.83
2022-10-30T14:32:50.232Z,13.67
2022-10-30T14:35:36.507Z,9.73
2022-10-30T14:38:31.904Z,15.83
2022-10-30T14:41:24.360Z,12.83
2022-10-30T14:44:16.795Z,15.30
2022-10-30T14:46:59.081Z,14.33
2022-10-30T14:49:41.518Z,15.80
2022-10-30T14:52:29.752Z,10.87
2022-10-30T14:55:06.486Z,18.27
2022-10-30T14:57:48.463Z,13.17
2022-10-30T15:00:39.717Z,13.00
2022-10-30T15:03:34.371Z,15.80
2022-10-30T15:06:07.600Z,12.03
2022-10-30T15:08:57.468Z,14.90
2022-10-30T15:11:32.031Z,13.97
2022-10-30T15:14:03.336Z,15.20
2022-10-30T15:16:32.303Z,14.60
2022-10-30T15:19:02.831Z,15.80
2022-10-30T15:21:34.103Z,21.23
2022-10-30T15:24:03.152Z,13.27
2022-10-30T15:26:36.690Z,21.43
2022-10-30T15:29:07.404Z,15.23
2022-10-30T15:31:36.134Z,14.43
2022-10-30T15:34:21.218Z,14.50
2022-10-30T15:36:49.681Z,11.47
2022-10-30T15:39:19.840Z,15.50
2022-10-30T15:41:50.081Z,20.57
2022-10-30T15:44:23.718Z,18.33
2022-10-30T15:46:54.559Z,15.43
2022-10-30T15:49:31.037Z,16.87
2022-10-30T15:52:00.629Z,16.07
2022-10-30T15:54:30.546Z,19.90
2022-10-30T15:59:54.342Z,16.80
2022-10-30T16:02:24.781Z,16.77
2022-10-30T16:04:53.526Z,18.40
2022-10-30T16:07:23.840Z,16.97
2022-10-30T16:09:56.675Z,19.93
2022-10-30T16:12:26.593Z,16.47
2022-10-30T16:14:56.791Z,20.57
2022-10-30T16:17:25.831Z,17.40
2022-10-30T16:19:56.219Z,20.17
2022-10-30T16:22:27.405Z,17.67
2022-10-30T16:24:57.099Z,28.23
2022-10-30T16:27:27.409Z,24.93
2022-10-30T16:30:00.204Z,29.90
2022-10-30T16:32:31.714Z,26.97
2022-10-30T16:35:02.087Z,25.90
2022-10-30T16:37:35.354Z,22.20
2022-10-30T16:40:06.762Z,23.33
2022-10-30T16:42:35.361Z,22.47
2022-10-30T16:45:41.556Z,19.40
2022-10-30T16:50:51.434Z,23.13
2022-10-30T16:53:21.510Z,23.03
2022-10-30T16:55:50.239Z,18.13
2022-10-30T16:58:20.040Z,16.77
2022-10-30T17:00:54.421Z,20.27
2022-10-30T17:03:26.458Z,23.10
2022-10-30T17:05:59.098Z,18.43
2022-10-30T17:08:36.304Z,25.57
2022-10-30T17:11:07.049Z,20.57
2022-10-30T17:13:37.223Z,26.33
2022-10-30T17:16:25.880Z,19.37
2022-10-30T17:18:55.487Z,23.73
2022-10-30T17:21:26.313Z,25.13
2022-10-30T17:23:57.987Z,19.50
2022-10-30T17:26:27.251Z,22.87
2022-10-30T17:28:55.784Z,18.97
2022-10-30T17:31:29.694Z,21.10
2022-10-30T17:34:14.732Z,25.67
2022-10-30T17:36:45.114Z,22.37
2022-10-30T17:39:13.689Z,20.20
2022-10-30T17:41:42.439Z,17.47
2022-10-30T17:44:17.852Z,25.27
2022-10-30T17:46:48.267Z,28.00
2022-10-30T17:49:25.854Z,20.83
2022-10-30T17:51:54.666Z,25.00
2022-10-30T17:54:23.270Z,19.83
2022-10-30T17:56:52.694Z,22.43
2022-10-30T17:59:21.821Z,21.13
2022-10-30T18:01:51.800Z,21.43
2022-10-30T18:04:21.588Z,19.17
2022-10-30T18:06:50.696Z,24.37
2022-10-30T18:09:19.222Z,22.53
2022-10-30T18:11:47.711Z,24.77
2022-10-30T18:14:16.313Z,24.03
2022-10-30T18:16:44.857Z,18.00
2022-10-30T18:19:14.690Z,22.93
2022-10-30T18:21:45.232Z,21.23
2022-10-30T18:24:14.207Z,23.00
2022-10-30T18:26:42.895Z,20.77
2022-10-30T18:29:12.121Z,20.27
2022-10-30T18:31:41.401Z,20.00
2022-10-30T18:34:16.547Z,21.00
2022-10-30T18:36:45.102Z,20.37
2022-10-30T18:39:13.943Z,21.93
2022-10-30T18:41:43.814Z,21.03
2022-10-30T18:44:15.580Z,29.37
2022-10-30T18:46:44.400Z,27.23
2022-10-30T18:49:14.580Z,28.83
2022-10-30T18:51:43.032Z,24.60
2022-10-30T18:54:15.552Z,32.90
2022-10-30T18:56:44.089Z,30.03
2022-10-30T18:59:12.506Z,30.17
2022-10-30T19:01:41.351Z,27.10
2022-10-30T19:04:10.568Z,23.97
2022-10-30T19:06:41.630Z,26.23
2022-10-30T19:09:10.059Z,22.77
2022-10-30T19:11:43.308Z,21.63
2022-10-30T19:14:14.053Z,21.10
2022-10-30T19:16:43.191Z,23.73
2022-10-30T19:19:11.651Z,22.93
2022-10-30T19:21:41.574Z,30.60
2022-10-30T19:24:13.237Z,23.20
2022-10-30T19:26:42.104Z,24.40
2022-10-30T19:29:10.558Z,21.47
2022-10-30T19:31:40.052Z,24.27
2022-10-30T19:34:09.587Z,23.07
2022-10-30T19:36:38.735Z,20.77
2022-10-30T19:39:14.322Z,23.93
2022-10-30T19:41:43.555Z,22.10
2022-10-30T19:44:12.156Z,26.57
2022-10-30T19:46:40.650Z,26.17
2022-10-30T19:49:17.871Z,21.10
2022-10-30T19:51:48.401Z,20.53
2022-10-30T19:54:18.317Z,22.50
2022-10-30T19:56:46.759Z,18.50
2022-10-30T19:59:16.261Z,17.73
2022-10-30T20:01:45.222Z,17.83
2022-10-30T20:04:14.199Z,21.57
2022-10-30T20:06:42.874Z,23.30
2022-10-30T20:09:12.028Z,25.70
2022-10-30T20:11:41.927Z,17.63
2022-10-30T20:14:10.424Z,21.37
2022-10-30T20:16:38.887Z,24.13
2022-10-30T20:19:26.292Z,18.33
2022-10-30T20:21:55.561Z,18.43
2022-10-30T20:24:25.132Z,16.43
2022-10-30T20:26:56.999Z,17.57
2022-10-30T20:29:25.572Z,18.67
2022-10-30T20:31:54.141Z,20.43
2022-10-30T20:34:22.674Z,23.80
2022-10-30T20:36:51.210Z,26.87
2022-10-30T20:39:19.724Z,30.33
2022-10-30T20:41:48.434Z,31.70
2022-10-30T20:44:18.502Z,27.23
2022-10-30T20:46:47.355Z,33.00
2022-10-30T20:49:18.354Z,29.87
2022-10-30T20:51:47.979Z,28.23
2022-10-30T20:54:16.755Z,24.27
2022-10-30T20:56:45.327Z,25.00
2022-10-30T20:59:14.028Z,26.60
2022-10-30T21:01:44.096Z,24.37
2022-10-30T21:04:13.547Z,21.20
2022-10-30T21:06:42.425Z,17.47
2022-10-30T21:09:11.705Z,20.20
2022-10-30T21:11:40.384Z,17.30
2022-10-30T21:14:09.008Z,20.43
2022-10-30T21:16:37.721Z,18.90
2022-10-30T21:19:07.789Z,16.50
2022-10-30T21:21:36.423Z,23.30
2022-10-30T21:24:05.372Z,22.20
2022-10-30T21:26:35.037Z,21.33
2022-10-30T21:29:03.679Z,20.57
2022-10-30T21:31:32.756Z,17.13
2022-10-30T21:34:01.426Z,24.10
2022-10-30T21:36:31.480Z,22.37
2022-10-30T21:39:00.309Z,21.27
2022-10-30T21:41:28.838Z,19.43
2022-10-30T21:43:58.392Z,23.13
2022-10-30T21:46:29.004Z,15.10
2022-10-30T21:48:57.840Z,19.97
2022-10-30T21:51:27.553Z,25.80
2022-10-30T21:53:57.749Z,24.33
2022-10-30T21:56:27.923Z,24.67
2022-10-30T21:58:57.038Z,18.30
2022-10-30T22:01:28.282Z,18.77
2022-10-30T22:03:57.254Z,21.30
2022-10-30T22:06:26.487Z,17.27
2022-10-30T22:08:57.780Z,21.70
2022-10-30T22:11:28.413Z,15.60
2022-10-30T22:13:58.286Z,20.03
2022-10-30T22:16:28.532Z,18.43
2022-10-30T22:18:57.744Z,19.20
2022-10-30T22:21:28.290Z,19.97
2022-10-30T22:24:00.148Z,14.90
2022-10-30T22:26:29.011Z,15.50
2022-10-30T22:28:59.035Z,18.20
2022-10-30T22:31:29.158Z,18.17
2022-10-30T22:33:57.810Z,19.43
2022-10-30T22:36:27.559Z,20.13
2022-10-30T22:38:59.560Z,22.13
2022-10-30T22:41:32.835Z,19.23
2022-10-30T22:44:07.826Z,19.77
2022-10-30T22:46:37.349Z,19.30
2022-10-30T22:49:05.983Z,21.30
2022-10-30T22:51:36.413Z,19.57
2022-10-30T22:54:08.420Z,23.87
2022-10-30T22:56:37.745Z,20.50
2022-10-30T22:59:09.037Z,19.70
2022-10-30T23:01:38.497Z,19.00
2022-10-30T23:04:08.107Z,18.13
2022-10-30T23:06:37.261Z,20.97
2022-10-30T23:09:09.154Z,18.17
2022-10-30T23:11:37.567Z,21.50
2022-10-30T23:14:06.036Z,18.20
2022-10-30T23:16:34.538Z,19.17
2022-10-30T23:19:03.167Z,23.17
2022-10-30T23:21:32.446Z,19.30
2022-10-30T23:24:02.961Z,19.03
2022-10-30T23:26:34.607Z,18.20
2022-10-30T23:29:03.975Z,18.87
2022-10-30T23:31:34.417Z,18.57
2022-10-30T23:34:04.927Z,24.63
2022-10-30T23:36:33.628Z,17.37
2022-10-30T23:39:03.164Z,18.73
2022-10-30T23:41:34.344Z,22.73
2022-10-30T23:44:05.000Z,19.73
2022-10-30T23:46:33.632Z,20.13
2022-10-30T23:49:02.486Z,19.83
2022-10-30T23:51:31.264Z,19.97
2022-10-30T23:53:59.762Z,22.30
2022-10-30T23:56:29.400Z,23.13
2022-10-30T23:58:59.369Z,22.90
